createdAt,value
2023-03-27T00:01:50.621Z,6.27
2023-03-27T00:04:22.408Z,6.23
2023-03-27T00:06:49.364Z,6.21
2023-03-27T00:09:17.232Z,6.31
2023-03-27T00:11:46.537Z,6.23
2023-03-27T00:14:16.394Z,6.13
2023-03-27T00:16:46.518Z,6.18
2023-03-27T00:19:16.193Z,6.17
2023-03-27T00:21:48.896Z,6.22
2023-03-27T00:24:16.123Z,6.22
2023-03-27T00:26:45.913Z,6.22
2023-03-27T00:29:13.586Z,6.21
2023-03-27T00:31:42.813Z,6.28
2023-03-27T00:34:10.658Z,6.21
2023-03-27T00:36:43.874Z,6.15
2023-03-27T00:39:11.506Z,6.12
2023-03-27T00:41:40.911Z,6.14
2023-03-27T00:44:27.139Z,6.17
2023-03-27T00:46:58.144Z,6.19
2023-03-27T00:49:36.370Z,6.18
2023-03-27T00:52:07.219Z,6.18
2023-03-27T00:54:39.058Z,6.05
2023-03-27T00:57:09.496Z,6.12
2023-03-27T00:59:40.932Z,6.21
2023-03-27T01:02:09.230Z,6.26
2023-03-27T01:04:40.446Z,6.16
2023-03-27T01:07:11.378Z,6.26
2023-03-27T01:09:39.419Z,6.26
2023-03-27T01:12:38.591Z,6.29
2023-03-27T01:15:33.183Z,6.24
2023-03-27T01:18:16.369Z,6.17
2023-03-27T01:20:59.943Z,6.25
2023-03-27T01:23:59.822Z,6.17
2023-03-27T01:27:07.731Z,6.13
2023-03-27T01:30:02.943Z,6.03
2023-03-27T01:32:57.347Z,6.11
2023-03-27T01:36:04.377Z,6.12
2023-03-27T01:38:37.257Z,6.04
2023-03-27T01:41:13.079Z,5.90
2023-03-27T01:44:17.725Z,6.01
2023-03-27T01:47:34.323Z,6.02
2023-03-27T01:50:13.202Z,5.89
2023-03-27T01:52:44.394Z,5.94
2023-03-27T01:55:19.456Z,5.99
2023-03-27T01:58:03.367Z,5.78
2023-03-27T02:00:51.706Z,5.89
2023-03-27T02:03:31.875Z,5.93
2023-03-27T02:06:14.466Z,5.88
2023-03-27T02:08:53.508Z,5.75
2023-03-27T02:11:29.065Z,5.89
2023-03-27T02:14:09.929Z,5.84
2023-03-27T02:16:48.854Z,5.82
2023-03-27T02:19:35.314Z,5.91
2023-03-27T02:22:02.539Z,5.85
2023-03-27T02:24:38.923Z,5.85
2023-03-27T02:27:34.601Z,5.97
2023-03-27T02:30:09.885Z,5.95
2023-03-27T02:33:06.588Z,5.96
2023-03-27T02:35:39.606Z,5.96
2023-03-27T02:38:09.838Z,5.92
2023-03-27T02:41:10.044Z,5.88
2023-03-27T02:44:03.502Z,5.89
2023-03-27T02:46:54.895Z,5.91
2023-03-27T02:49:33.670Z,5.85
2023-03-27T02:52:06.735Z,5.82
2023-03-27T02:54:41.087Z,5.72
2023-03-27T02:57:16.685Z,5.80
2023-03-27T03:00:05.646Z,5.77
2023-03-27T03:02:38.224Z,5.84
2023-03-27T03:05:14.688Z,5.86
2023-03-27T03:07:41.828Z,5.81
2023-03-27T03:10:12.041Z,5.82
2023-03-27T03:12:46.774Z,5.80
2023-03-27T03:15:13.639Z,5.77
2023-03-27T03:17:40.693Z,5.76
2023-03-27T03:20:09.965Z,5.67
2023-03-27T03:22:40.106Z,5.70
2023-03-27T03:25:07.977Z,5.69
2023-03-27T03:27:39.209Z,5.67
2023-03-27T03:30:16.600Z,5.62
2023-03-27T03:33:07.483Z,5.59
2023-03-27T03:35:35.105Z,5.60
2023-03-27T03:38:08.856Z,5.66
2023-03-27T03:40:44.165Z,5.60
2023-03-27T03:43:13.493Z,5.59
2023-03-27T03:45:42.865Z,5.61
2023-03-27T03:48:12.048Z,5.60
2023-03-27T03:50:41.311Z,5.61
2023-03-27T03:53:08.245Z,5.61
2023-03-27T03:55:35.176Z,5.51
2023-03-27T03:58:04.377Z,5.57
2023-03-27T04:00:38.394Z,5.57
2023-03-27T04:03:09.968Z,5.58
2023-03-27T04:05:39.180Z,5.55
2023-03-27T04:08:13.170Z,5.54
2023-03-27T04:11:06.190Z,5.53
2023-03-27T04:13:58.035Z,5.48
2023-03-27T04:16:31.110Z,5.50
2023-03-27T04:19:03.621Z,5.54
2023-03-27T04:21:36.714Z,5.54
2023-03-27T04:24:08.569Z,5.55
2023-03-27T04:26:48.170Z,5.39
2023-03-27T04:29:22.576Z,5.58
2023-03-27T04:31:59.398Z,5.57
2023-03-27T04:34:41.806Z,5.46
2023-03-27T04:37:29.489Z,5.58
2023-03-27T04:40:05.331Z,5.56
2023-03-27T04:42:32.299Z,5.53
2023-03-27T04:44:59.221Z,5.59
2023-03-27T04:47:32.077Z,5.62
2023-03-27T04:50:01.154Z,5.54
2023-03-27T04:52:30.214Z,5.56
2023-03-27T04:54:59.073Z,5.57
2023-03-27T04:57:31.049Z,5.50
2023-03-27T05:00:02.166Z,5.58
2023-03-27T05:02:48.095Z,5.49
2023-03-27T05:05:20.988Z,5.53
2023-03-27T05:07:49.835Z,5.48
2023-03-27T05:10:21.889Z,5.34
2023-03-27T05:12:51.664Z,5.39
2023-03-27T05:15:22.036Z,5.37
2023-03-27T05:17:55.213Z,5.39
2023-03-27T05:20:25.462Z,5.31
2023-03-27T05:22:56.596Z,5.37
2023-03-27T05:25:35.940Z,5.33
2023-03-27T05:28:09.567Z,5.23
2023-03-27T05:30:39.260Z,5.21
2023-03-27T05:33:17.800Z,5.26
2023-03-27T05:35:48.621Z,5.24
2023-03-27T05:38:16.945Z,5.11
2023-03-27T05:41:13.042Z,5.17
2023-03-27T05:43:50.191Z,5.15
2023-03-27T05:46:21.991Z,5.08
2023-03-27T05:48:59.395Z,5.09
2023-03-27T05:51:29.638Z,5.13
2023-03-27T05:53:56.974Z,5.02
2023-03-27T05:56:33.462Z,5.13
2023-03-27T05:59:05.254Z,4.98
2023-03-27T06:01:37.622Z,5.08
2023-03-27T06:04:11.228Z,5.08
2023-03-27T06:07:09.454Z,4.98
2023-03-27T06:09:36.806Z,4.94
2023-03-27T06:12:26.848Z,4.91
2023-03-27T06:15:07.672Z,4.89
2023-03-27T06:17:43.341Z,4.89
2023-03-27T06:20:15.797Z,4.87
2023-03-27T06:22:52.891Z,4.78
2023-03-27T06:25:32.285Z,4.85
2023-03-27T06:28:08.669Z,4.85
2023-03-27T06:30:44.710Z,4.81
2023-03-27T06:33:33.116Z,4.72
2023-03-27T06:36:05.605Z,4.66
2023-03-27T06:38:42.668Z,4.64
2023-03-27T06:41:12.890Z,4.58
2023-03-27T06:44:09.369Z,4.59
2023-03-27T06:46:59.873Z,4.56
2023-03-27T06:49:31.889Z,4.51
2023-03-27T06:52:07.060Z,4.56
2023-03-27T06:54:40.911Z,4.45
2023-03-27T06:57:15.838Z,4.47
2023-03-27T06:59:54.715Z,4.44
2023-03-27T07:02:28.855Z,4.42
2023-03-27T07:05:15.838Z,4.42
2023-03-27T07:07:49.324Z,4.41
2023-03-27T07:10:22.702Z,4.38
2023-03-27T07:12:54.550Z,4.34
2023-03-27T07:15:25.123Z,4.37
2023-03-27T07:18:04.518Z,4.34
2023-03-27T07:20:37.279Z,4.34
2023-03-27T07:23:13.068Z,4.33
2023-03-27T07:26:02.144Z,4.31
2023-03-27T07:28:52.923Z,4.31
2023-03-27T07:31:34.999Z,4.31
2023-03-27T07:34:10.679Z,4.29
2023-03-27T07:37:02.023Z,4.27
2023-03-27T07:39:35.584Z,4.28
2023-03-27T07:42:08.791Z,4.23
2023-03-27T07:45:06.615Z,4.27
2023-03-27T07:47:33.651Z,4.20
2023-03-27T07:50:06.353Z,4.24
2023-03-27T07:52:35.959Z,4.17
2023-03-27T07:55:08.695Z,4.24
2023-03-27T07:57:59.916Z,4.19
2023-03-27T08:00:35.657Z,4.17
2023-03-27T08:03:15.368Z,4.10
2023-03-27T08:05:47.458Z,4.03
2023-03-27T08:08:16.311Z,4.01
2023-03-27T08:11:00.762Z,4.04
2023-03-27T08:13:33.324Z,3.98
2023-03-27T08:16:11.515Z,4.02
2023-03-27T08:18:40.953Z,3.95
2023-03-27T08:21:13.358Z,3.89
2023-03-27T08:23:44.343Z,3.97
2023-03-27T08:26:29.853Z,3.93
2023-03-27T08:28:59.420Z,4.00
2023-03-27T08:31:31.889Z,4.04
2023-03-27T08:34:05.687Z,4.06
2023-03-27T08:36:46.706Z,4.06
2023-03-27T08:39:17.066Z,4.11
2023-03-27T08:42:13.932Z,4.17
2023-03-27T08:44:45.311Z,4.12
2023-03-27T08:47:42.597Z,4.22
2023-03-27T08:50:32.638Z,4.18
2023-03-27T08:53:17.440Z,4.24
2023-03-27T08:55:44.783Z,4.09
2023-03-27T08:58:22.183Z,4.08
2023-03-27T09:01:19.573Z,4.07
2023-03-27T09:04:05.221Z,3.99
2023-03-27T09:06:50.705Z,4.00
2023-03-27T09:09:24.362Z,3.98
2023-03-27T09:12:24.578Z,3.99
2023-03-27T09:15:15.633Z,3.91
2023-03-27T09:18:39.633Z,3.92
2023-03-27T09:21:36.730Z,3.91
2023-03-27T09:24:25.034Z,3.86
2023-03-27T09:27:27.168Z,3.88
2023-03-27T09:30:11.200Z,3.86
2023-03-27T09:32:54.237Z,3.81
2023-03-27T09:35:25.887Z,3.74
2023-03-27T09:38:04.047Z,3.82
2023-03-27T09:40:50.022Z,3.84
2023-03-27T09:43:24.419Z,3.83
2023-03-27T09:45:59.047Z,3.80
2023-03-27T09:48:40.270Z,3.89
2023-03-27T09:51:36.615Z,3.94
2023-03-27T09:54:14.894Z,3.96
2023-03-27T09:56:50.473Z,3.98
2023-03-27T09:59:28.669Z,3.97
2023-03-27T10:02:24.086Z,3.98
2023-03-27T10:05:23.313Z,4.04
2023-03-27T10:07:59.651Z,4.08
2023-03-27T10:10:55.563Z,4.15
2023-03-27T10:13:48.098Z,4.20
2023-03-27T10:16:22.877Z,4.26
2023-03-27T10:19:04.060Z,4.32
2023-03-27T10:21:42.842Z,4.36
2023-03-27T10:24:27.529Z,4.42
2023-03-27T10:27:17.329Z,4.37
2023-03-27T10:30:34.333Z,4.52
2023-03-27T10:33:45.822Z,4.53
2023-03-27T10:36:39.668Z,4.55
2023-03-27T10:39:16.596Z,4.54
2023-03-27T10:41:55.810Z,4.61
2023-03-27T10:44:30.929Z,4.60
2023-03-27T10:47:03.209Z,4.61
2023-03-27T10:49:58.688Z,4.73
2023-03-27T10:52:33.925Z,4.79
2023-03-27T10:55:33.503Z,4.82
2023-03-27T10:58:14.226Z,4.87
2023-03-27T11:00:49.075Z,4.87
2023-03-27T11:03:45.833Z,4.82
2023-03-27T11:06:20.977Z,4.92
2023-03-27T11:09:05.846Z,4.95
2023-03-27T11:11:41.248Z,4.91
2023-03-27T11:14:46.051Z,4.95
2023-03-27T11:17:23.283Z,4.89
2023-03-27T11:20:37.199Z,5.01
2023-03-27T11:23:43.595Z,5.16
2023-03-27T11:26:39.732Z,5.28
2023-03-27T11:29:23.188Z,5.36
2023-03-27T11:32:04.347Z,5.49
2023-03-27T11:34:42.725Z,5.52
2023-03-27T11:38:02.868Z,5.52
2023-03-27T11:40:43.396Z,5.37
2023-03-27T11:43:17.665Z,5.67
2023-03-27T11:46:22.920Z,5.80
2023-03-27T11:49:07.458Z,5.94
2023-03-27T11:51:39.745Z,6.12
2023-03-27T11:54:40.839Z,6.22
2023-03-27T11:57:26.029Z,6.26
2023-03-27T12:00:18.449Z,6.24
2023-03-27T12:03:07.047Z,6.21
2023-03-27T12:06:02.252Z,6.13
2023-03-27T12:08:56.386Z,6.08
2023-03-27T12:11:27.206Z,5.94
2023-03-27T12:14:28.268Z,5.91
2023-03-27T12:17:20.630Z,5.91
2023-03-27T12:20:09.357Z,5.95
2023-03-27T12:23:19.466Z,6.07
2023-03-27T12:26:06.712Z,6.16
2023-03-27T12:29:40.829Z,6.23
2023-03-27T12:32:32.042Z,6.24
2023-03-27T12:35:14.434Z,6.23
2023-03-27T12:37:59.986Z,6.20
2023-03-27T12:40:38.963Z,6.19
2023-03-27T12:43:33.894Z,6.13
2023-03-27T12:46:23.602Z,6.07
2023-03-27T12:48:56.743Z,6.01
2023-03-27T12:51:39.713Z,5.97
2023-03-27T12:54:16.670Z,5.95
2023-03-27T12:56:45.729Z,5.94
2023-03-27T12:59:28.327Z,5.96
2023-03-27T13:02:06.761Z,5.99
2023-03-27T13:04:47.950Z,5.97
2023-03-27T13:07:29.046Z,5.93
2023-03-27T13:10:30.146Z,5.88
2023-03-27T13:13:23.652Z,5.80
2023-03-27T13:16:19.584Z,5.76
2023-03-27T13:18:59.125Z,5.71
2023-03-27T13:21:29.713Z,5.66
2023-03-27T13:24:34.184Z,5.63
2023-03-27T13:27:15.458Z,5.61
2023-03-27T13:29:50.170Z,5.55
2023-03-27T13:32:38.195Z,5.58
2023-03-27T13:35:38.437Z,5.58
2023-03-27T13:38:05.340Z,5.66
2023-03-27T13:40:54.886Z,5.76
2023-03-27T13:43:31.046Z,5.78
2023-03-27T13:46:08.291Z,5.82
2023-03-27T13:49:15.870Z,5.89
2023-03-27T13:52:33.500Z,5.90
2023-03-27T13:55:17.780Z,5.91
2023-03-27T13:58:32.824Z,5.97
2023-03-27T14:01:26.192Z,5.99
2023-03-27T14:04:11.353Z,5.97
2023-03-27T14:07:05.438Z,5.93
2023-03-27T14:09:50.441Z,5.85
2023-03-27T14:12:27.922Z,5.77
2023-03-27T14:15:21.573Z,5.78
2023-03-27T14:18:25.875Z,5.73
2023-03-27T14:21:03.595Z,5.68
2023-03-27T14:23:52.062Z,5.63
2023-03-27T14:26:45.501Z,5.60
2023-03-27T14:29:21.386Z,5.51
2023-03-27T14:31:53.778Z,5.48
2023-03-27T14:34:35.240Z,5.44
2023-03-27T14:37:32.925Z,5.27
2023-03-27T14:40:23.182Z,5.31
2023-03-27T14:42:54.539Z,5.28
2023-03-27T14:45:30.339Z,5.30
2023-03-27T14:48:06.445Z,5.28
2023-03-27T14:50:47.892Z,5.27
2023-03-27T14:53:26.298Z,5.26
2023-03-27T14:56:31.989Z,5.33
2023-03-27T14:59:14.059Z,5.36
2023-03-27T15:01:58.145Z,5.40
2023-03-27T15:04:28.360Z,5.43
2023-03-27T15:07:19.150Z,5.42
2023-03-27T15:10:07.008Z,5.45
2023-03-27T15:13:12.333Z,5.47
2023-03-27T15:15:53.648Z,5.43
2023-03-27T15:18:53.171Z,5.48
2023-03-27T15:21:34.893Z,5.47
2023-03-27T15:24:13.770Z,5.49
2023-03-27T15:26:45.348Z,5.50
2023-03-27T15:29:24.095Z,5.46
2023-03-27T15:31:59.967Z,5.39
2023-03-27T15:34:47.785Z,5.46
2023-03-27T15:37:23.466Z,5.49
2023-03-27T15:40:10.424Z,5.54
2023-03-27T15:42:52.788Z,5.45
2023-03-27T15:45:38.438Z,5.56
2023-03-27T15:48:32.749Z,5.56
2023-03-27T15:51:06.510Z,5.57
2023-03-27T15:53:43.526Z,5.58
2023-03-27T15:56:13.077Z,5.59
2023-03-27T15:58:59.964Z,5.56
2023-03-27T16:01:32.570Z,5.57
2023-03-27T16:04:12.544Z,5.58
2023-03-27T16:06:46.047Z,5.54
2023-03-27T16:09:23.516Z,5.53
2023-03-27T16:11:56.126Z,5.54
2023-03-27T16:14:28.201Z,5.55
2023-03-27T16:17:14.926Z,5.53
2023-03-27T16:19:56.195Z,5.52
2023-03-27T16:22:35.692Z,5.47
2023-03-27T16:25:04.531Z,5.49
2023-03-27T16:27:43.687Z,5.49
2023-03-27T16:30:23.560Z,5.47
2023-03-27T16:32:55.989Z,5.47
2023-03-27T16:35:25.257Z,5.45
2023-03-27T16:37:56.817Z,5.45
2023-03-27T16:40:26.352Z,5.41
2023-03-27T16:42:53.173Z,5.34
2023-03-27T16:45:25.387Z,5.42
2023-03-27T16:47:53.516Z,5.39
2023-03-27T16:50:23.479Z,5.30
2023-03-27T16:52:55.246Z,5.17
2023-03-27T16:55:25.407Z,5.03
2023-03-27T16:57:55.879Z,4.79
2023-03-27T17:00:23.104Z,4.75
2023-03-27T17:02:52.209Z,4.74
2023-03-27T17:05:22.533Z,4.71
2023-03-27T17:07:51.884Z,4.66
2023-03-27T17:10:21.326Z,4.61
2023-03-27T17:12:53.720Z,4.45
2023-03-27T17:15:25.960Z,4.36
2023-03-27T17:17:55.197Z,4.34
2023-03-27T17:20:27.383Z,4.27
2023-03-27T17:22:56.930Z,4.26
2023-03-27T17:25:23.778Z,4.23
2023-03-27T17:27:52.871Z,4.23
2023-03-27T17:30:36.622Z,4.10
2023-03-27T17:33:11.199Z,4.17
2023-03-27T17:35:41.531Z,4.13
2023-03-27T17:38:13.172Z,4.09
2023-03-27T17:40:41.181Z,4.07
2023-03-27T17:43:08.085Z,3.99
2023-03-27T17:45:41.470Z,4.09
2023-03-27T17:48:11.667Z,3.98
2023-03-27T17:50:41.975Z,3.98
2023-03-27T17:53:14.374Z,3.85
2023-03-27T17:55:44.165Z,3.73
2023-03-27T17:58:22.078Z,3.76
2023-03-27T18:00:50.065Z,3.68
2023-03-27T18:03:24.263Z,3.46
2023-03-27T18:05:51.231Z,3.52
2023-03-27T18:08:19.915Z,3.51
2023-03-27T18:10:55.612Z,3.48
2023-03-27T18:13:22.464Z,3.46
2023-03-27T18:15:58.526Z,3.42
2023-03-27T18:18:25.971Z,3.36
2023-03-27T18:20:56.646Z,3.31
2023-03-27T18:23:23.605Z,3.35
2023-03-27T18:25:52.719Z,3.31
2023-03-27T18:28:22.514Z,3.37
2023-03-27T18:31:02.220Z,3.45
2023-03-27T18:33:34.733Z,3.42
2023-03-27T18:36:01.909Z,3.44
2023-03-27T18:38:30.131Z,3.43
2023-03-27T18:41:01.644Z,3.33
2023-03-27T18:43:33.693Z,3.22
2023-03-27T18:46:04.300Z,3.37
2023-03-27T18:48:31.656Z,3.26
2023-03-27T18:51:05.580Z,3.35
2023-03-27T18:53:33.132Z,3.25
2023-03-27T18:56:05.175Z,3.34
2023-03-27T18:58:36.892Z,3.32
2023-03-27T19:01:11.053Z,3.35
2023-03-27T19:03:43.064Z,3.23
2023-03-27T19:06:12.024Z,3.36
2023-03-27T19:08:43.376Z,3.37
2023-03-27T19:11:12.614Z,3.30
2023-03-27T19:13:58.419Z,3.30
2023-03-27T19:16:43.846Z,3.32
2023-03-27T19:19:16.533Z,3.26
2023-03-27T19:21:52.743Z,3.27
2023-03-27T19:24:27.341Z,3.31
2023-03-27T19:26:54.433Z,3.31
2023-03-27T19:29:23.574Z,3.26
2023-03-27T19:31:54.603Z,3.21
2023-03-27T19:34:32.673Z,3.29
2023-03-27T19:37:09.314Z,3.24
2023-03-27T19:39:36.320Z,3.18
2023-03-27T19:42:05.824Z,3.28
2023-03-27T19:44:38.329Z,3.17
2023-03-27T19:47:07.746Z,3.23
2023-03-27T19:49:37.970Z,3.37
2023-03-27T19:52:18.834Z,3.32
2023-03-27T19:54:46.680Z,3.22
2023-03-27T19:57:13.625Z,3.31
2023-03-27T19:59:45.514Z,3.17
2023-03-27T20:02:13.499Z,3.21
2023-03-27T20:04:40.443Z,2.98
2023-03-27T20:07:07.856Z,2.93
2023-03-27T20:09:37.403Z,2.91
2023-03-27T20:12:06.083Z,2.97
2023-03-27T20:14:33.036Z,2.99
2023-03-27T20:16:59.959Z,2.91
2023-03-27T20:19:30.775Z,2.89
2023-03-27T20:22:07.869Z,2.85
2023-03-27T20:24:34.738Z,2.81
2023-03-27T20:27:02.308Z,2.80
2023-03-27T20:29:29.231Z,2.78
2023-03-27T20:32:00.850Z,2.80
2023-03-27T20:34:30.173Z,2.64
2023-03-27T20:36:59.775Z,2.68
2023-03-27T20:39:47.422Z,2.78
2023-03-27T20:42:18.424Z,2.82
2023-03-27T20:44:55.079Z,2.75
2023-03-27T20:47:26.508Z,2.64
2023-03-27T20:49:59.053Z,2.66
2023-03-27T20:52:30.792Z,2.69
2023-03-27T20:54:57.753Z,2.68
2023-03-27T20:57:27.101Z,2.59
2023-03-27T20:59:56.685Z,2.67
2023-03-27T21:02:26.734Z,2.49
2023-03-27T21:04:53.701Z,2.46
2023-03-27T21:07:25.528Z,2.56
2023-03-27T21:09:54.948Z,2.39
2023-03-27T21:12:21.820Z,2.30
2023-03-27T21:14:48.699Z,2.56
2023-03-27T21:17:18.221Z,2.51
2023-03-27T21:19:45.117Z,2.39
2023-03-27T21:22:14.299Z,2.57
2023-03-27T21:24:45.582Z,2.51
2023-03-27T21:27:12.855Z,2.46
2023-03-27T21:29:39.699Z,2.50
2023-03-27T21:32:06.947Z,2.49
2023-03-27T21:34:36.414Z,2.55
2023-03-27T21:37:05.568Z,2.36
2023-03-27T21:39:37.330Z,2.47
2023-03-27T21:42:09.574Z,2.49
2023-03-27T21:44:38.551Z,2.46
2023-03-27T21:47:10.416Z,2.40
2023-03-27T21:49:39.857Z,2.58
2023-03-27T21:52:09.497Z,2.61
2023-03-27T21:54:38.822Z,2.53
2023-03-27T21:57:05.958Z,2.38
2023-03-27T21:59:33.061Z,2.51
2023-03-27T22:02:00.123Z,2.47
2023-03-27T22:04:31.895Z,2.40
2023-03-27T22:07:01.179Z,2.56
2023-03-27T22:09:33.142Z,2.63
2023-03-27T22:12:03.000Z,2.59
2023-03-27T22:14:30.103Z,2.56
2023-03-27T22:16:59.762Z,2.63
2023-03-27T22:19:26.788Z,2.65
2023-03-27T22:21:53.888Z,2.58
2023-03-27T22:24:25.323Z,2.62
2023-03-27T22:26:54.700Z,2.58
2023-03-27T22:29:21.785Z,2.61
2023-03-27T22:31:48.893Z,2.55
2023-03-27T22:34:16.032Z,2.55
2023-03-27T22:36:47.282Z,2.55
2023-03-27T22:39:16.757Z,2.55
2023-03-27T22:41:48.534Z,2.59
2023-03-27T22:44:18.340Z,2.55
2023-03-27T22:46:47.589Z,2.50
2023-03-27T22:49:19.335Z,2.30
2023-03-27T22:51:46.213Z,2.49
2023-03-27T22:54:15.812Z,2.53
2023-03-27T22:56:42.769Z,2.56
2023-03-27T22:59:12.815Z,2.52
2023-03-27T23:01:40.288Z,2.59
2023-03-27T23:04:09.780Z,2.61
2023-03-27T23:06:36.743Z,2.49
2023-03-27T23:09:06.539Z,2.52
2023-03-27T23:11:35.987Z,2.62
2023-03-27T23:14:02.880Z,2.56
2023-03-27T23:16:34.624Z,2.62
2023-03-27T23:19:04.145Z,2.60
2023-03-27T23:21:33.672Z,2.45
2023-03-27T23:24:04.976Z,2.50
2023-03-27T23:26:36.892Z,2.49
2023-03-27T23:29:06.186Z,2.59
2023-03-27T23:31:35.889Z,2.53
2023-03-27T23:34:05.278Z,2.46
2023-03-27T23:36:34.657Z,2.51
2023-03-27T23:39:03.758Z,2.37
2023-03-27T23:41:30.693Z,2.58
2023-03-27T23:44:00.586Z,2.60
2023-03-27T23:46:29.702Z,2.53
2023-03-27T23:48:58.662Z,2.59
2023-03-27T23:51:32.936Z,2.55
2023-03-27T23:54:05.033Z,2.54
2023-03-27T23:56:34.226Z,2.58
2023-03-27T23:59:03.235Z,2.48
